sensor_id;sensor_type;location;lat;lon;timestamp;temperature;humidity
19665;DHT22;9980;51.020;7.772;2023-07-31T00:01:55;18.80;99.90
19665;DHT22;9980;51.020;7.772;2023-07-31T00:04:22;18.90;99.90
19665;DHT22;9980;51.020;7.772;2023-07-31T00:06:49;18.80;99.90
19665;DHT22;9980;51.020;7.772;2023-07-31T00:09:16;18.80;99.90
19665;DHT22;9980;51.020;7.772;2023-07-31T00:11:43;18.80;99.90
19665;DHT22;9980;51.020;7.772;2023-07-31T00:14:10;18.80;99.90
19665;DHT22;9980;51.020;7.772;2023-07-31T00:16:37;18.80;99.90
19665;DHT22;9980;51.020;7.772;2023-07-31T00:19:04;18.80;99.90
19665;DHT22;9980;51.020;7.772;2023-07-31T00:21:31;18.80;99.90
19665;DHT22;9980;51.020;7.772;2023-07-31T00:23:58;18.80;99.90
19665;DHT22;9980;51.020;7.772;2023-07-31T00:26:25;18.80;99.90
19665;DHT22;9980;51.020;7.772;2023-07-31T00:28:52;18.80;99.90
19665;DHT22;9980;51.020;7.772;2023-07-31T00:31:19;18.80;99.90
19665;DHT22;9980;51.020;7.772;2023-07-31T00:33:47;18.80;99.90
19665;DHT22;9980;51.020;7.772;2023-07-31T00:36:14;18.80;99.90
19665;DHT22;9980;51.020;7.772;2023-07-31T00:38:42;18.80;99.90
19665;DHT22;9980;51.020;7.772;2023-07-31T00:41:09;18.80;99.90
19665;DHT22;9980;51.020;7.772;2023-07-31T00:43:36;18.80;99.90
19665;DHT22;9980;51.020;7.772;2023-07-31T00:46:02;18.90;99.90
19665;DHT22;9980;51.020;7.772;2023-07-31T00:48:30;18.80;99.90
19665;DHT22;9980;51.020;7.772;2023-07-31T00:50:57;18.80;99.90
19665;DHT22;9980;51.020;7.772;2023-07-31T00:53:25;18.90;99.90
19665;DHT22;9980;51.020;7.772;2023-07-31T00:55:52;18.90;99.90
19665;DHT22;9980;51.020;7.772;2023-07-31T00:58:19;18.80;99.90
19665;DHT22;9980;51.020;7.772;2023-07-31T01:00:47;18.80;99.90
19665;DHT22;9980;51.020;7.772;2023-07-31T01:03:14;18.90;99.90
19665;DHT22;9980;51.020;7.772;2023-07-31T01:08:58;18.80;99.90
19665;DHT22;9980;51.020;7.772;2023-07-31T01:11:33;18.80;99.90
19665;DHT22;9980;51.020;7.772;2023-07-31T01:14:04;18.80;99.90
19665;DHT22;9980;51.020;7.772;2023-07-31T01:16:32;18.80;99.90
19665;DHT22;9980;51.020;7.772;2023-07-31T01:18:59;18.80;99.90
19665;DHT22;9980;51.020;7.772;2023-07-31T01:24:43;18.80;99.90
19665;DHT22;9980;51.020;7.772;2023-07-31T01:27:23;18.80;99.90
19665;DHT22;9980;51.020;7.772;2023-07-31T01:30:16;18.80;99.90
19665;DHT22;9980;51.020;7.772;2023-07-31T01:32:48;18.80;99.90
19665;DHT22;9980;51.020;7.772;2023-07-31T01:35:16;18.80;99.90
19665;DHT22;9980;51.020;7.772;2023-07-31T01:37:43;18.80;99.90
19665;DHT22;9980;51.020;7.772;2023-07-31T01:40:11;18.80;99.90
19665;DHT22;9980;51.020;7.772;2023-07-31T01:42:38;18.80;99.90
19665;DHT22;9980;51.020;7.772;2023-07-31T01:45:06;18.80;99.90
19665;DHT22;9980;51.020;7.772;2023-07-31T01:47:33;18.80;99.90
19665;DHT22;9980;51.020;7.772;2023-07-31T01:50:00;18.80;99.90
19665;DHT22;9980;51.020;7.772;2023-07-31T01:52:27;18.80;99.90
19665;DHT22;9980;51.020;7.772;2023-07-31T01:54:55;18.80;99.90
19665;DHT22;9980;51.020;7.772;2023-07-31T01:57:22;18.90;99.90
19665;DHT22;9980;51.020;7.772;2023-07-31T01:59:49;18.80;99.90
19665;DHT22;9980;51.020;7.772;2023-07-31T02:02:16;18.80;99.90
19665;DHT22;9980;51.020;7.772;2023-07-31T02:04:43;18.80;99.90
19665;DHT22;9980;51.020;7.772;2023-07-31T02:07:10;18.80;99.90
19665;DHT22;9980;51.020;7.772;2023-07-31T02:09:37;18.90;99.90
19665;DHT22;9980;51.020;7.772;2023-07-31T02:12:04;18.80;99.90
19665;DHT22;9980;51.020;7.772;2023-07-31T02:14:31;18.90;99.90
19665;DHT22;9980;51.020;7.772;2023-07-31T02:16:58;18.90;99.90
19665;DHT22;9980;51.020;7.772;2023-07-31T02:19:46;18.90;99.90
19665;DHT22;9980;51.020;7.772;2023-07-31T02:22:21;18.80;99.90
19665;DHT22;9980;51.020;7.772;2023-07-31T02:24:48;18.90;99.90
19665;DHT22;9980;51.020;7.772;2023-07-31T02:27:15;18.80;99.90
19665;DHT22;9980;51.020;7.772;2023-07-31T02:29:44;18.80;99.90
19665;DHT22;9980;51.020;7.772;2023-07-31T02:32:11;18.80;99.90
19665;DHT22;9980;51.020;7.772;2023-07-31T02:34:39;18.80;99.90
19665;DHT22;9980;51.020;7.772;2023-07-31T02:37:06;18.80;99.90
19665;DHT22;9980;51.020;7.772;2023-07-31T02:39:33;18.80;99.90
19665;DHT22;9980;51.020;7.772;2023-07-31T02:42:00;18.80;99.90
19665;DHT22;9980;51.020;7.772;2023-07-31T02:44:27;18.80;99.90
19665;DHT22;9980;51.020;7.772;2023-07-31T02:46:55;18.80;99.90
19665;DHT22;9980;51.020;7.772;2023-07-31T02:49:22;18.80;99.90
19665;DHT22;9980;51.020;7.772;2023-07-31T02:51:49;18.80;99.90
19665;DHT22;9980;51.020;7.772;2023-07-31T02:54:16;18.80;99.90
19665;DHT22;9980;51.020;7.772;2023-07-31T02:56:43;18.80;99.90
19665;DHT22;9980;51.020;7.772;2023-07-31T02:59:10;18.80;99.90
19665;DHT22;9980;51.020;7.772;2023-07-31T03:01:37;18.80;99.90
19665;DHT22;9980;51.020;7.772;2023-07-31T03:04:05;18.80;99.90
19665;DHT22;9980;51.020;7.772;2023-07-31T03:06:32;18.90;99.90
19665;DHT22;9980;51.020;7.772;2023-07-31T03:08:59;18.90;99.90
19665;DHT22;9980;51.020;7.772;2023-07-31T03:11:27;18.90;99.90
19665;DHT22;9980;51.020;7.772;2023-07-31T03:13:55;18.90;99.90
19665;DHT22;9980;51.020;7.772;2023-07-31T03:16:22;18.90;99.90
19665;DHT22;9980;51.020;7.772;2023-07-31T03:18:49;18.90;99.90
19665;DHT22;9980;51.020;7.772;2023-07-31T03:21:16;18.90;99.90
19665;DHT22;9980;51.020;7.772;2023-07-31T03:23:43;18.90;99.90
19665;DHT22;9980;51.020;7.772;2023-07-31T03:26:10;18.90;99.90
19665;DHT22;9980;51.020;7.772;2023-07-31T03:28:37;18.90;99.90
19665;DHT22;9980;51.020;7.772;2023-07-31T03:31:04;18.90;99.90
19665;DHT22;9980;51.020;7.772;2023-07-31T03:33:31;18.90;99.90
19665;DHT22;9980;51.020;7.772;2023-07-31T03:35:58;18.90;99.90
19665;DHT22;9980;51.020;7.772;2023-07-31T03:38:25;18.90;99.90
19665;DHT22;9980;51.020;7.772;2023-07-31T03:40:53;19.00;99.90
19665;DHT22;9980;51.020;7.772;2023-07-31T03:43:19;19.00;99.90
19665;DHT22;9980;51.020;7.772;2023-07-31T03:45:49;19.00;99.90
19665;DHT22;9980;51.020;7.772;2023-07-31T03:48:16;19.00;99.90
19665;DHT22;9980;51.020;7.772;2023-07-31T03:50:43;19.00;99.90
19665;DHT22;9980;51.020;7.772;2023-07-31T03:53:10;19.00;99.90
19665;DHT22;9980;51.020;7.772;2023-07-31T03:55:37;19.00;99.90
19665;DHT22;9980;51.020;7.772;2023-07-31T03:58:04;19.00;99.90
19665;DHT22;9980;51.020;7.772;2023-07-31T04:00:31;19.00;99.90
19665;DHT22;9980;51.020;7.772;2023-07-31T04:02:57;19.00;99.90
19665;DHT22;9980;51.020;7.772;2023-07-31T04:05:24;19.00;99.90
19665;DHT22;9980;51.020;7.772;2023-07-31T04:07:51;19.00;99.90
19665;DHT22;9980;51.020;7.772;2023-07-31T04:10:18;19.00;99.90
19665;DHT22;9980;51.020;7.772;2023-07-31T04:12:45;19.00;99.90
19665;DHT22;9980;51.020;7.772;2023-07-31T04:15:12;19.00;99.90
19665;DHT22;9980;51.020;7.772;2023-07-31T04:17:39;19.00;99.90
19665;DHT22;9980;51.020;7.772;2023-07-31T04:20:06;19.00;99.90
19665;DHT22;9980;51.020;7.772;2023-07-31T04:22:33;19.00;99.90
19665;DHT22;9980;51.020;7.772;2023-07-31T04:25:00;19.00;99.90
19665;DHT22;9980;51.020;7.772;2023-07-31T04:27:27;19.10;99.90
19665;DHT22;9980;51.020;7.772;2023-07-31T04:29:54;19.10;99.90
19665;DHT22;9980;51.020;7.772;2023-07-31T04:32:21;19.10;99.90
19665;DHT22;9980;51.020;7.772;2023-07-31T04:34:48;19.00;99.90
19665;DHT22;9980;51.020;7.772;2023-07-31T04:37:15;19.00;99.90
19665;DHT22;9980;51.020;7.772;2023-07-31T04:39:42;19.10;99.90
19665;DHT22;9980;51.020;7.772;2023-07-31T04:42:08;19.10;99.90
19665;DHT22;9980;51.020;7.772;2023-07-31T04:44:36;19.10;99.90
19665;DHT22;9980;51.020;7.772;2023-07-31T04:47:03;19.10;99.90
19665;DHT22;9980;51.020;7.772;2023-07-31T04:49:30;19.10;99.90
19665;DHT22;9980;51.020;7.772;2023-07-31T04:51:58;19.00;99.90
19665;DHT22;9980;51.020;7.772;2023-07-31T04:54:25;19.00;99.90
19665;DHT22;9980;51.020;7.772;2023-07-31T04:56:53;19.00;99.90
19665;DHT22;9980;51.020;7.772;2023-07-31T04:59:20;19.00;99.90
19665;DHT22;9980;51.020;7.772;2023-07-31T05:01:47;19.00;99.90
19665;DHT22;9980;51.020;7.772;2023-07-31T05:04:14;19.00;99.90
19665;DHT22;9980;51.020;7.772;2023-07-31T05:06:41;19.00;99.90
19665;DHT22;9980;51.020;7.772;2023-07-31T05:09:09;19.00;99.90
19665;DHT22;9980;51.020;7.772;2023-07-31T05:11:36;19.00;99.90
19665;DHT22;9980;51.020;7.772;2023-07-31T05:14:03;19.00;99.90
19665;DHT22;9980;51.020;7.772;2023-07-31T05:16:29;19.00;99.90
19665;DHT22;9980;51.020;7.772;2023-07-31T05:18:57;19.00;99.90
19665;DHT22;9980;51.020;7.772;2023-07-31T05:21:23;19.00;99.90
19665;DHT22;9980;51.020;7.772;2023-07-31T05:23:50;19.00;99.90
19665;DHT22;9980;51.020;7.772;2023-07-31T05:26:17;19.00;99.90
19665;DHT22;9980;51.020;7.772;2023-07-31T05:28:45;19.10;99.90
19665;DHT22;9980;51.020;7.772;2023-07-31T05:31:14;19.10;99.90
19665;DHT22;9980;51.020;7.772;2023-07-31T05:33:41;19.10;99.90
19665;DHT22;9980;51.020;7.772;2023-07-31T05:36:08;19.10;99.90
19665;DHT22;9980;51.020;7.772;2023-07-31T05:38:36;19.10;99.90
19665;DHT22;9980;51.020;7.772;2023-07-31T05:41:02;19.20;99.90
19665;DHT22;9980;51.020;7.772;2023-07-31T05:43:29;19.20;99.90
19665;DHT22;9980;51.020;7.772;2023-07-31T05:45:56;19.20;99.90
19665;DHT22;9980;51.020;7.772;2023-07-31T05:48:23;19.30;99.90
19665;DHT22;9980;51.020;7.772;2023-07-31T05:50:50;19.30;99.90
19665;DHT22;9980;51.020;7.772;2023-07-31T05:53:17;19.30;99.90
19665;DHT22;9980;51.020;7.772;2023-07-31T05:55:44;19.40;99.90
19665;DHT22;9980;51.020;7.772;2023-07-31T05:58:11;19.30;99.90
19665;DHT22;9980;51.020;7.772;2023-07-31T06:00:38;19.40;99.90
19665;DHT22;9980;51.020;7.772;2023-07-31T06:03:05;19.40;99.90
19665;DHT22;9980;51.020;7.772;2023-07-31T06:05:32;19.40;99.90
19665;DHT22;9980;51.020;7.772;2023-07-31T06:07:59;19.50;99.90
19665;DHT22;9980;51.020;7.772;2023-07-31T06:10:26;19.60;99.90
19665;DHT22;9980;51.020;7.772;2023-07-31T06:12:53;19.60;99.90
19665;DHT22;9980;51.020;7.772;2023-07-31T06:15:20;19.70;99.90
19665;DHT22;9980;51.020;7.772;2023-07-31T06:17:47;19.70;99.90
19665;DHT22;9980;51.020;7.772;2023-07-31T06:20:14;19.80;99.90
19665;DHT22;9980;51.020;7.772;2023-07-31T06:22:41;19.80;99.90
19665;DHT22;9980;51.020;7.772;2023-07-31T06:25:08;19.90;99.90
19665;DHT22;9980;51.020;7.772;2023-07-31T06:27:40;19.90;99.90
19665;DHT22;9980;51.020;7.772;2023-07-31T06:30:07;20.00;99.90
19665;DHT22;9980;51.020;7.772;2023-07-31T06:32:35;20.00;99.90
19665;DHT22;9980;51.020;7.772;2023-07-31T06:35:02;20.00;99.90
19665;DHT22;9980;51.020;7.772;2023-07-31T06:37:30;20.10;99.90
19665;DHT22;9980;51.020;7.772;2023-07-31T06:39:57;20.10;99.90
19665;DHT22;9980;51.020;7.772;2023-07-31T06:42:23;20.10;99.90
19665;DHT22;9980;51.020;7.772;2023-07-31T06:44:50;20.20;99.90
19665;DHT22;9980;51.020;7.772;2023-07-31T06:47:17;20.20;99.90
19665;DHT22;9980;51.020;7.772;2023-07-31T06:49:44;20.20;99.90
19665;DHT22;9980;51.020;7.772;2023-07-31T06:52:11;20.30;99.90
19665;DHT22;9980;51.020;7.772;2023-07-31T06:54:38;20.30;99.90
19665;DHT22;9980;51.020;7.772;2023-07-31T06:57:05;20.30;99.90
19665;DHT22;9980;51.020;7.772;2023-07-31T06:59:32;20.30;99.90
19665;DHT22;9980;51.020;7.772;2023-07-31T07:01:59;20.30;99.90
19665;DHT22;9980;51.020;7.772;2023-07-31T07:04:26;20.30;99.90
19665;DHT22;9980;51.020;7.772;2023-07-31T07:06:53;20.30;99.90
19665;DHT22;9980;51.020;7.772;2023-07-31T07:09:20;20.30;99.90
19665;DHT22;9980;51.020;7.772;2023-07-31T07:11:47;20.30;99.90
19665;DHT22;9980;51.020;7.772;2023-07-31T07:14:14;20.30;99.90
19665;DHT22;9980;51.020;7.772;2023-07-31T07:16:41;20.30;99.90
19665;DHT22;9980;51.020;7.772;2023-07-31T07:19:09;20.30;99.90
19665;DHT22;9980;51.020;7.772;2023-07-31T07:21:36;20.30;99.90
19665;DHT22;9980;51.020;7.772;2023-07-31T07:24:03;20.30;99.90
19665;DHT22;9980;51.020;7.772;2023-07-31T07:26:31;20.30;99.90
19665;DHT22;9980;51.020;7.772;2023-07-31T07:28:58;20.30;99.90
19665;DHT22;9980;51.020;7.772;2023-07-31T07:31:27;20.30;99.90
19665;DHT22;9980;51.020;7.772;2023-07-31T07:33:55;20.30;99.90
19665;DHT22;9980;51.020;7.772;2023-07-31T07:36:23;20.40;99.90
19665;DHT22;9980;51.020;7.772;2023-07-31T07:38:50;20.40;99.90
19665;DHT22;9980;51.020;7.772;2023-07-31T07:41:17;20.50;99.90
19665;DHT22;9980;51.020;7.772;2023-07-31T07:43:45;20.60;99.90
19665;DHT22;9980;51.020;7.772;2023-07-31T07:46:12;20.70;99.90
19665;DHT22;9980;51.020;7.772;2023-07-31T07:48:39;20.80;99.90
19665;DHT22;9980;51.020;7.772;2023-07-31T07:51:06;20.80;99.90
19665;DHT22;9980;51.020;7.772;2023-07-31T07:53:33;20.90;99.90
19665;DHT22;9980;51.020;7.772;2023-07-31T07:56:04;21.00;99.90
19665;DHT22;9980;51.020;7.772;2023-07-31T07:58:31;21.10;99.90
19665;DHT22;9980;51.020;7.772;2023-07-31T08:00:58;21.20;99.90
19665;DHT22;9980;51.020;7.772;2023-07-31T08:03:25;21.30;99.90
19665;DHT22;9980;51.020;7.772;2023-07-31T08:06:01;21.40;99.90
19665;DHT22;9980;51.020;7.772;2023-07-31T08:08:28;21.40;99.90
19665;DHT22;9980;51.020;7.772;2023-07-31T08:10:55;21.50;99.90
19665;DHT22;9980;51.020;7.772;2023-07-31T08:13:22;21.60;99.90
19665;DHT22;9980;51.020;7.772;2023-07-31T08:15:50;21.60;99.90
19665;DHT22;9980;51.020;7.772;2023-07-31T08:18:17;21.60;99.90
19665;DHT22;9980;51.020;7.772;2023-07-31T08:20:44;21.60;99.90
19665;DHT22;9980;51.020;7.772;2023-07-31T08:23:11;21.60;99.90
19665;DHT22;9980;51.020;7.772;2023-07-31T08:25:39;21.60;99.90
19665;DHT22;9980;51.020;7.772;2023-07-31T08:28:07;21.60;99.90
19665;DHT22;9980;51.020;7.772;2023-07-31T08:30:34;21.50;99.90
19665;DHT22;9980;51.020;7.772;2023-07-31T08:33:01;21.50;99.90
19665;DHT22;9980;51.020;7.772;2023-07-31T08:35:29;21.50;99.90
19665;DHT22;9980;51.020;7.772;2023-07-31T08:37:56;21.50;99.90
19665;DHT22;9980;51.020;7.772;2023-07-31T08:40:23;21.50;99.90
19665;DHT22;9980;51.020;7.772;2023-07-31T08:42:53;21.50;99.90
19665;DHT22;9980;51.020;7.772;2023-07-31T08:45:23;21.50;99.90
19665;DHT22;9980;51.020;7.772;2023-07-31T08:47:51;21.50;99.90
19665;DHT22;9980;51.020;7.772;2023-07-31T08:50:20;21.50;99.90
19665;DHT22;9980;51.020;7.772;2023-07-31T08:52:50;21.50;99.90
19665;DHT22;9980;51.020;7.772;2023-07-31T08:55:18;21.50;99.90
19665;DHT22;9980;51.020;7.772;2023-07-31T08:57:51;21.50;99.90
19665;DHT22;9980;51.020;7.772;2023-07-31T09:00:20;21.50;99.90
19665;DHT22;9980;51.020;7.772;2023-07-31T09:02:57;21.50;99.90
19665;DHT22;9980;51.020;7.772;2023-07-31T09:05:30;21.50;99.90
19665;DHT22;9980;51.020;7.772;2023-07-31T09:07:58;21.50;99.90
19665;DHT22;9980;51.020;7.772;2023-07-31T09:10:26;21.50;99.90
19665;DHT22;9980;51.020;7.772;2023-07-31T09:12:53;21.40;99.90
19665;DHT22;9980;51.020;7.772;2023-07-31T09:15:23;21.40;99.90
19665;DHT22;9980;51.020;7.772;2023-07-31T09:18:05;21.40;99.90
19665;DHT22;9980;51.020;7.772;2023-07-31T09:20:34;21.40;99.90
19665;DHT22;9980;51.020;7.772;2023-07-31T09:23:07;21.40;99.90
19665;DHT22;9980;51.020;7.772;2023-07-31T09:25:39;21.40;99.90
19665;DHT22;9980;51.020;7.772;2023-07-31T09:28:10;21.40;99.90
19665;DHT22;9980;51.020;7.772;2023-07-31T09:30:50;21.30;99.90
19665;DHT22;9980;51.020;7.772;2023-07-31T09:33:19;21.40;99.90
19665;DHT22;9980;51.020;7.772;2023-07-31T09:35:47;21.30;99.90
19665;DHT22;9980;51.020;7.772;2023-07-31T09:38:16;21.40;99.90
19665;DHT22;9980;51.020;7.772;2023-07-31T09:40:47;21.40;99.90
19665;DHT22;9980;51.020;7.772;2023-07-31T09:43:19;21.40;99.90
19665;DHT22;9980;51.020;7.772;2023-07-31T09:45:48;21.40;99.90
19665;DHT22;9980;51.020;7.772;2023-07-31T09:48:23;21.40;99.90
19665;DHT22;9980;51.020;7.772;2023-07-31T09:50:53;21.30;99.90
19665;DHT22;9980;51.020;7.772;2023-07-31T09:53:28;21.30;99.90
19665;DHT22;9980;51.020;7.772;2023-07-31T09:55:59;21.30;99.90
19665;DHT22;9980;51.020;7.772;2023-07-31T09:58:29;21.30;99.90
19665;DHT22;9980;51.020;7.772;2023-07-31T10:00:59;21.30;99.90
19665;DHT22;9980;51.020;7.772;2023-07-31T10:03:31;21.40;99.90
19665;DHT22;9980;51.020;7.772;2023-07-31T10:06:00;21.40;99.90
19665;DHT22;9980;51.020;7.772;2023-07-31T10:08:30;21.40;99.90
19665;DHT22;9980;51.020;7.772;2023-07-31T10:11:02;21.40;99.90
19665;DHT22;9980;51.020;7.772;2023-07-31T10:13:30;21.40;99.90
19665;DHT22;9980;51.020;7.772;2023-07-31T10:15:59;21.50;99.90
19665;DHT22;9980;51.020;7.772;2023-07-31T10:18:28;21.50;99.90
19665;DHT22;9980;51.020;7.772;2023-07-31T10:20:58;21.50;99.90
19665;DHT22;9980;51.020;7.772;2023-07-31T10:23:26;21.50;99.90
19665;DHT22;9980;51.020;7.772;2023-07-31T10:25:53;21.50;99.90
19665;DHT22;9980;51.020;7.772;2023-07-31T10:28:21;21.50;99.90
19665;DHT22;9980;51.020;7.772;2023-07-31T10:30:49;21.50;99.90
19665;DHT22;9980;51.020;7.772;2023-07-31T10:33:18;21.50;99.90
19665;DHT22;9980;51.020;7.772;2023-07-31T10:35:47;21.50;99.90
19665;DHT22;9980;51.020;7.772;2023-07-31T10:38:15;21.50;99.90
19665;DHT22;9980;51.020;7.772;2023-07-31T10:40:43;21.50;99.90
19665;DHT22;9980;51.020;7.772;2023-07-31T10:43:24;21.50;99.90
19665;DHT22;9980;51.020;7.772;2023-07-31T10:45:54;21.50;99.90
19665;DHT22;9980;51.020;7.772;2023-07-31T10:48:21;21.40;99.90
19665;DHT22;9980;51.020;7.772;2023-07-31T10:50:51;21.50;99.90
19665;DHT22;9980;51.020;7.772;2023-07-31T10:55:58;21.40;99.90
19665;DHT22;9980;51.020;7.772;2023-07-31T10:58:30;21.40;99.90
19665;DHT22;9980;51.020;7.772;2023-07-31T11:01:00;21.40;99.90
19665;DHT22;9980;51.020;7.772;2023-07-31T11:03:47;21.50;99.90
19665;DHT22;9980;51.020;7.772;2023-07-31T11:06:16;21.50;99.90
19665;DHT22;9980;51.020;7.772;2023-07-31T11:08:47;21.50;99.90
19665;DHT22;9980;51.020;7.772;2023-07-31T11:11:20;21.50;99.90
19665;DHT22;9980;51.020;7.772;2023-07-31T11:13:49;21.60;99.90
19665;DHT22;9980;51.020;7.772;2023-07-31T11:16:20;21.60;99.90
19665;DHT22;9980;51.020;7.772;2023-07-31T11:18:49;21.70;99.90
19665;DHT22;9980;51.020;7.772;2023-07-31T11:21:20;21.70;99.90
19665;DHT22;9980;51.020;7.772;2023-07-31T11:23:50;21.80;99.90
19665;DHT22;9980;51.020;7.772;2023-07-31T11:26:19;21.80;99.90
19665;DHT22;9980;51.020;7.772;2023-07-31T11:28:47;21.90;99.90
19665;DHT22;9980;51.020;7.772;2023-07-31T11:31:16;21.90;99.90
19665;DHT22;9980;51.020;7.772;2023-07-31T11:33:45;22.00;99.90
19665;DHT22;9980;51.020;7.772;2023-07-31T11:36:17;22.00;99.90
19665;DHT22;9980;51.020;7.772;2023-07-31T11:38:48;22.10;99.90
19665;DHT22;9980;51.020;7.772;2023-07-31T11:41:16;22.10;99.90
19665;DHT22;9980;51.020;7.772;2023-07-31T11:43:46;22.20;99.90
19665;DHT22;9980;51.020;7.772;2023-07-31T11:46:14;22.30;99.90
19665;DHT22;9980;51.020;7.772;2023-07-31T11:48:42;22.30;99.90
19665;DHT22;9980;51.020;7.772;2023-07-31T11:51:10;22.30;99.90
19665;DHT22;9980;51.020;7.772;2023-07-31T11:53:41;22.40;99.90
19665;DHT22;9980;51.020;7.772;2023-07-31T11:56:13;22.40;99.90
19665;DHT22;9980;51.020;7.772;2023-07-31T11:58:41;22.50;99.90
19665;DHT22;9980;51.020;7.772;2023-07-31T12:01:13;22.50;99.90
19665;DHT22;9980;51.020;7.772;2023-07-31T12:03:44;22.50;99.90
19665;DHT22;9980;51.020;7.772;2023-07-31T12:06:13;22.60;99.90
19665;DHT22;9980;51.020;7.772;2023-07-31T12:08:40;22.60;99.90
19665;DHT22;9980;51.020;7.772;2023-07-31T12:11:08;22.60;99.90
19665;DHT22;9980;51.020;7.772;2023-07-31T12:13:36;22.70;99.90
19665;DHT22;9980;51.020;7.772;2023-07-31T12:16:03;22.70;99.90
19665;DHT22;9980;51.020;7.772;2023-07-31T12:18:36;22.70;99.90
19665;DHT22;9980;51.020;7.772;2023-07-31T12:21:06;22.70;99.90
19665;DHT22;9980;51.020;7.772;2023-07-31T12:23:36;22.70;99.90
19665;DHT22;9980;51.020;7.772;2023-07-31T12:26:17;22.70;99.90
19665;DHT22;9980;51.020;7.772;2023-07-31T12:28:49;22.70;99.90
19665;DHT22;9980;51.020;7.772;2023-07-31T12:31:20;22.70;99.90
19665;DHT22;9980;51.020;7.772;2023-07-31T12:33:50;22.70;99.90
19665;DHT22;9980;51.020;7.772;2023-07-31T12:36:25;22.70;99.90
19665;DHT22;9980;51.020;7.772;2023-07-31T12:38:55;22.70;99.90
19665;DHT22;9980;51.020;7.772;2023-07-31T12:41:26;22.60;99.90
19665;DHT22;9980;51.020;7.772;2023-07-31T12:43:55;22.50;99.90
19665;DHT22;9980;51.020;7.772;2023-07-31T12:46:25;22.40;99.90
19665;DHT22;9980;51.020;7.772;2023-07-31T12:48:54;22.40;99.90
19665;DHT22;9980;51.020;7.772;2023-07-31T12:51:22;22.40;99.90
19665;DHT22;9980;51.020;7.772;2023-07-31T12:53:49;22.40;99.90
19665;DHT22;9980;51.020;7.772;2023-07-31T12:56:17;22.50;99.90
19665;DHT22;9980;51.020;7.772;2023-07-31T12:58:44;22.50;99.90
19665;DHT22;9980;51.020;7.772;2023-07-31T13:01:12;22.60;99.90
19665;DHT22;9980;51.020;7.772;2023-07-31T13:03:39;22.70;99.90
19665;DHT22;9980;51.020;7.772;2023-07-31T13:06:07;22.80;99.90
19665;DHT22;9980;51.020;7.772;2023-07-31T13:08:34;22.90;99.90
19665;DHT22;9980;51.020;7.772;2023-07-31T13:11:01;23.00;99.90
19665;DHT22;9980;51.020;7.772;2023-07-31T13:13:31;23.10;99.90
19665;DHT22;9980;51.020;7.772;2023-07-31T13:15:59;23.10;99.90
19665;DHT22;9980;51.020;7.772;2023-07-31T13:18:27;23.20;99.90
19665;DHT22;9980;51.020;7.772;2023-07-31T13:20:55;23.20;99.90
19665;DHT22;9980;51.020;7.772;2023-07-31T13:23:23;23.20;99.90
19665;DHT22;9980;51.020;7.772;2023-07-31T13:25:50;23.20;99.90
19665;DHT22;9980;51.020;7.772;2023-07-31T13:28:17;23.20;99.90
19665;DHT22;9980;51.020;7.772;2023-07-31T13:30:44;23.20;99.90
19665;DHT22;9980;51.020;7.772;2023-07-31T13:33:12;23.10;99.90
19665;DHT22;9980;51.020;7.772;2023-07-31T13:35:59;23.10;99.90
19665;DHT22;9980;51.020;7.772;2023-07-31T13:38:26;23.10;99.90
19665;DHT22;9980;51.020;7.772;2023-07-31T13:40:53;23.00;99.90
19665;DHT22;9980;51.020;7.772;2023-07-31T13:43:20;23.00;99.90
19665;DHT22;9980;51.020;7.772;2023-07-31T13:45:47;23.00;99.90
19665;DHT22;9980;51.020;7.772;2023-07-31T13:48:19;23.00;99.90
19665;DHT22;9980;51.020;7.772;2023-07-31T13:50:47;22.90;99.90
19665;DHT22;9980;51.020;7.772;2023-07-31T13:53:20;22.90;99.90
19665;DHT22;9980;51.020;7.772;2023-07-31T13:55:49;22.90;99.90
19665;DHT22;9980;51.020;7.772;2023-07-31T13:58:17;22.90;99.90
19665;DHT22;9980;51.020;7.772;2023-07-31T14:00:47;22.80;99.90
19665;DHT22;9980;51.020;7.772;2023-07-31T14:03:14;22.80;99.90
19665;DHT22;9980;51.020;7.772;2023-07-31T14:05:42;22.80;99.90
19665;DHT22;9980;51.020;7.772;2023-07-31T14:08:15;22.70;99.90
19665;DHT22;9980;51.020;7.772;2023-07-31T14:10:48;22.70;99.90
19665;DHT22;9980;51.020;7.772;2023-07-31T14:13:18;22.80;99.90
19665;DHT22;9980;51.020;7.772;2023-07-31T14:15:46;22.80;99.90
19665;DHT22;9980;51.020;7.772;2023-07-31T14:18:17;22.80;99.90
19665;DHT22;9980;51.020;7.772;2023-07-31T14:20:48;22.80;99.90
19665;DHT22;9980;51.020;7.772;2023-07-31T14:23:16;22.90;99.90
19665;DHT22;9980;51.020;7.772;2023-07-31T14:25:44;22.90;99.90
19665;DHT22;9980;51.020;7.772;2023-07-31T14:28:13;23.00;99.90
19665;DHT22;9980;51.020;7.772;2023-07-31T14:30:41;23.00;99.90
19665;DHT22;9980;51.020;7.772;2023-07-31T14:33:10;23.10;99.90
19665;DHT22;9980;51.020;7.772;2023-07-31T14:35:37;23.20;99.90
19665;DHT22;9980;51.020;7.772;2023-07-31T14:38:04;23.30;99.90
19665;DHT22;9980;51.020;7.772;2023-07-31T14:40:32;23.40;99.90
19665;DHT22;9980;51.020;7.772;2023-07-31T14:42:59;23.60;99.90
19665;DHT22;9980;51.020;7.772;2023-07-31T14:45:26;23.60;99.90
19665;DHT22;9980;51.020;7.772;2023-07-31T14:47:54;23.80;99.90
19665;DHT22;9980;51.020;7.772;2023-07-31T14:50:21;23.90;99.90
19665;DHT22;9980;51.020;7.772;2023-07-31T14:52:49;24.00;99.90
19665;DHT22;9980;51.020;7.772;2023-07-31T14:55:16;24.00;99.90
19665;DHT22;9980;51.020;7.772;2023-07-31T14:57:42;24.10;99.90
19665;DHT22;9980;51.020;7.772;2023-07-31T15:00:10;24.10;99.90
19665;DHT22;9980;51.020;7.772;2023-07-31T15:02:38;24.10;99.90
19665;DHT22;9980;51.020;7.772;2023-07-31T15:05:05;24.10;99.90
19665;DHT22;9980;51.020;7.772;2023-07-31T15:07:34;24.10;99.90
19665;DHT22;9980;51.020;7.772;2023-07-31T15:10:04;24.10;99.90
19665;DHT22;9980;51.020;7.772;2023-07-31T15:12:32;24.10;99.90
19665;DHT22;9980;51.020;7.772;2023-07-31T15:14:59;24.10;99.90
19665;DHT22;9980;51.020;7.772;2023-07-31T15:17:27;24.00;99.90
19665;DHT22;9980;51.020;7.772;2023-07-31T15:19:58;24.00;99.90
19665;DHT22;9980;51.020;7.772;2023-07-31T15:22:29;24.00;99.90
19665;DHT22;9980;51.020;7.772;2023-07-31T15:24:57;23.90;99.90
19665;DHT22;9980;51.020;7.772;2023-07-31T15:27:24;23.80;99.90
19665;DHT22;9980;51.020;7.772;2023-07-31T15:29:54;23.80;99.90
19665;DHT22;9980;51.020;7.772;2023-07-31T15:32:21;23.60;99.90
19665;DHT22;9980;51.020;7.772;2023-07-31T15:34:50;23.60;99.90
19665;DHT22;9980;51.020;7.772;2023-07-31T15:37:17;23.50;99.90
19665;DHT22;9980;51.020;7.772;2023-07-31T15:39:44;23.40;99.90
19665;DHT22;9980;51.020;7.772;2023-07-31T15:42:12;23.30;99.90
19665;DHT22;9980;51.020;7.772;2023-07-31T15:44:39;23.30;99.90
19665;DHT22;9980;51.020;7.772;2023-07-31T15:47:06;23.20;99.90
19665;DHT22;9980;51.020;7.772;2023-07-31T15:49:33;23.10;99.90
19665;DHT22;9980;51.020;7.772;2023-07-31T15:52:00;23.10;99.90
19665;DHT22;9980;51.020;7.772;2023-07-31T15:54:27;23.10;99.90
19665;DHT22;9980;51.020;7.772;2023-07-31T15:56:54;23.10;99.90
19665;DHT22;9980;51.020;7.772;2023-07-31T15:59:21;23.00;99.90
19665;DHT22;9980;51.020;7.772;2023-07-31T16:01:48;23.00;99.90